createdAt,value
2022-08-05T00:02:20.256Z,24.65
2022-08-05T00:07:59.920Z,24.64
2022-08-05T00:13:39.608Z,24.64
2022-08-05T00:19:02.293Z,24.63
2022-08-05T00:24:30.653Z,24.62
2022-08-05T00:29:53.162Z,24.60
2022-08-05T00:35:18.209Z,24.58
2022-08-05T00:40:53.918Z,24.63
2022-08-05T00:46:15.716Z,24.63
2022-08-05T00:51:51.237Z,24.63
2022-08-05T00:57:13.983Z,24.64
2022-08-05T01:02:35.708Z,24.64
2022-08-05T01:08:42.059Z,24.64
2022-08-05T01:13:59.869Z,24.65
2022-08-05T01:19:56.532Z,24.64
2022-08-05T01:25:43.578Z,24.62
2022-08-05T01:31:15.208Z,24.60
2022-08-05T01:36:46.969Z,24.60
2022-08-05T01:42:13.768Z,24.60
2022-08-05T01:47:39.490Z,24.56
2022-08-05T01:53:08.591Z,24.57
2022-08-05T01:58:45.136Z,24.55
2022-08-05T02:04:10.260Z,24.56
2022-08-05T02:09:32.546Z,24.54
2022-08-05T02:15:22.306Z,24.54
2022-08-05T02:20:58.775Z,24.52
2022-08-05T02:26:28.396Z,24.52
2022-08-05T02:31:54.224Z,24.51
2022-08-05T02:37:19.989Z,24.50
2022-08-05T02:42:45.546Z,24.50
2022-08-05T02:48:16.289Z,24.51
2022-08-05T02:53:40.436Z,24.50
2022-08-05T02:59:03.728Z,24.49
2022-08-05T03:04:28.099Z,24.48
2022-08-05T03:09:52.014Z,24.46
2022-08-05T03:15:14.496Z,24.45
2022-08-05T03:20:38.488Z,24.43
2022-08-05T03:26:32.041Z,24.44
2022-08-05T03:31:56.520Z,24.42
2022-08-05T03:37:21.181Z,24.42
2022-08-05T03:42:51.910Z,24.41
2022-08-05T03:48:14.649Z,24.39
2022-08-05T03:55:53.870Z,24.39
2022-08-05T03:59:54.973Z,24.38
2022-08-05T04:05:18.779Z,24.37
2022-08-05T04:10:41.847Z,24.37
2022-08-05T04:16:04.303Z,24.36
2022-08-05T04:22:09.351Z,24.35
2022-08-05T04:27:08.498Z,24.35
2022-08-05T04:32:31.138Z,24.36
2022-08-05T04:38:00.988Z,24.34
2022-08-05T04:43:24.750Z,24.34
2022-08-05T04:48:47.759Z,24.33
2022-08-05T04:54:14.917Z,24.33
2022-08-05T04:59:39.131Z,24.32
2022-08-05T05:05:03.016Z,24.32
2022-08-05T05:10:25.078Z,24.30
2022-08-05T05:15:56.633Z,24.29
2022-08-05T05:21:22.184Z,24.29
2022-08-05T05:26:51.945Z,24.27
2022-08-05T05:32:15.607Z,24.25
2022-08-05T05:38:00.101Z,24.27
2022-08-05T05:43:57.548Z,24.22
2022-08-05T05:49:06.440Z,24.04
2022-08-05T05:54:50.329Z,23.81
2022-08-05T06:00:18.272Z,23.65
2022-08-05T06:05:39.963Z,23.58
2022-08-05T06:11:04.035Z,23.61
2022-08-05T06:16:30.124Z,23.62
2022-08-05T06:21:53.864Z,23.66
2022-08-05T06:28:09.386Z,23.76
2022-08-05T06:32:58.034Z,23.82
2022-08-05T06:38:36.182Z,23.80
2022-08-05T06:44:00.620Z,23.83
2022-08-05T06:50:01.853Z,23.84
2022-08-05T06:55:05.063Z,23.85
2022-08-05T07:00:26.749Z,23.82
2022-08-05T07:05:51.527Z,23.83
2022-08-05T07:11:15.318Z,23.86
2022-08-05T07:18:00.161Z,23.89
2022-08-05T07:22:34.121Z,23.90
2022-08-05T07:28:01.421Z,23.93
2022-08-05T07:33:36.949Z,24.01
2022-08-05T07:39:06.752Z,24.06
2022-08-05T07:44:46.305Z,24.11
2022-08-05T07:50:09.132Z,24.18
2022-08-05T07:55:53.607Z,24.26
2022-08-05T08:01:13.493Z,24.32
2022-08-05T08:06:37.448Z,24.32
2022-08-05T08:12:06.218Z,24.28
2022-08-05T08:17:35.291Z,24.22
2022-08-05T08:23:03.416Z,24.24
2022-08-05T08:28:36.696Z,24.18
2022-08-05T08:33:58.969Z,24.20
2022-08-05T08:39:21.888Z,24.26
2022-08-05T08:45:20.312Z,24.29
2022-08-05T08:51:03.049Z,24.29
2022-08-05T08:56:08.632Z,24.24
2022-08-05T09:01:32.000Z,24.22
2022-08-05T09:06:53.789Z,24.17
2022-08-05T09:12:20.626Z,24.17
2022-08-05T09:17:50.745Z,24.19
2022-08-05T09:23:19.078Z,24.23
2022-08-05T09:28:41.823Z,24.26
2022-08-05T09:34:07.812Z,24.30
2022-08-05T09:39:41.794Z,24.33
2022-08-05T09:46:04.553Z,24.34
2022-08-05T09:50:52.108Z,24.36
2022-08-05T09:56:13.846Z,24.36
2022-08-05T10:01:40.178Z,24.37
2022-08-05T10:07:20.815Z,24.39
2022-08-05T10:12:56.211Z,24.38
2022-08-05T10:18:27.393Z,24.39
2022-08-05T10:23:59.445Z,24.39
2022-08-05T10:30:06.065Z,24.38
2022-08-05T10:35:04.579Z,24.38
2022-08-05T10:40:45.083Z,24.40
2022-08-05T10:46:12.581Z,24.40
2022-08-05T10:51:57.782Z,24.42
2022-08-05T10:57:33.704Z,24.43
2022-08-05T11:03:23.652Z,24.44
2022-08-05T11:09:16.607Z,24.43
2022-08-05T11:20:43.851Z,24.43
2022-08-05T11:26:28.627Z,24.44
2022-08-05T11:32:24.902Z,24.41
2022-08-05T11:38:29.336Z,24.42
2022-08-05T11:44:08.398Z,24.41
2022-08-05T11:49:33.873Z,24.39
2022-08-05T11:54:57.633Z,24.40
2022-08-05T12:00:32.032Z,24.40
2022-08-05T12:05:54.510Z,24.37
2022-08-05T12:11:23.853Z,24.37
2022-08-05T12:16:50.274Z,24.36
2022-08-05T12:22:12.820Z,24.35
2022-08-05T12:27:53.348Z,24.35
2022-08-05T12:33:27.479Z,24.35
2022-08-05T12:38:58.610Z,24.36
2022-08-05T12:44:21.606Z,24.36
2022-08-05T12:50:04.097Z,24.36
2022-08-05T12:55:32.477Z,24.36
2022-08-05T13:02:03.463Z,24.35
2022-08-05T13:06:51.942Z,24.36
2022-08-05T13:12:16.450Z,24.35
2022-08-05T13:17:41.988Z,24.34
2022-08-05T13:23:07.144Z,24.34
2022-08-05T13:28:29.455Z,24.34
2022-08-05T13:34:22.241Z,24.34
2022-08-05T13:40:16.210Z,24.34
2022-08-05T13:45:21.575Z,24.33
2022-08-05T13:50:43.327Z,24.34
2022-08-05T13:56:17.969Z,24.35
2022-08-05T14:01:46.727Z,24.34
2022-08-05T14:07:59.964Z,24.34
2022-08-05T14:13:15.411Z,24.34
2022-08-05T14:18:37.914Z,24.33
2022-08-05T14:24:00.735Z,24.33
2022-08-05T14:29:22.646Z,24.32
2022-08-05T14:34:45.016Z,24.32
2022-08-05T14:40:08.447Z,24.33
2022-08-05T14:45:30.475Z,24.34
2022-08-05T14:50:52.546Z,24.32
2022-08-05T14:56:14.645Z,24.34
2022-08-05T15:01:48.870Z,24.33
2022-08-05T15:07:11.427Z,24.32
2022-08-05T15:13:01.189Z,24.31
2022-08-05T15:18:26.091Z,24.29
2022-08-05T15:23:48.299Z,24.29
2022-08-05T15:29:10.051Z,24.23
2022-08-05T15:34:33.613Z,24.24
2022-08-05T15:41:00.214Z,24.24
2022-08-05T15:45:45.634Z,24.28
2022-08-05T15:51:07.852Z,24.28
2022-08-05T15:56:30.653Z,24.30
2022-08-05T16:01:53.720Z,24.33
2022-08-05T16:07:15.586Z,24.37
2022-08-05T16:12:37.327Z,24.27
2022-08-05T16:17:59.320Z,24.23
2022-08-05T16:23:21.166Z,24.27
2022-08-05T16:28:44.526Z,24.27
2022-08-05T16:34:06.213Z,24.28
2022-08-05T16:40:06.103Z,24.22
2022-08-05T16:46:03.550Z,24.24
2022-08-05T16:50:54.960Z,24.24
2022-08-05T16:56:17.372Z,24.22
2022-08-05T17:01:54.695Z,24.21
2022-08-05T17:07:38.925Z,24.19
2022-08-05T17:12:59.437Z,24.14
2022-08-05T17:18:23.322Z,24.10
2022-08-05T17:24:04.370Z,24.04
2022-08-05T17:29:33.111Z,24.01
2022-08-05T17:34:55.853Z,23.99
2022-08-05T17:40:22.560Z,23.96
2022-08-05T17:45:44.784Z,23.92
2022-08-05T17:51:09.270Z,23.92
2022-08-05T17:56:31.546Z,23.92
2022-08-05T18:01:54.282Z,23.94
2022-08-05T18:07:16.562Z,23.94
2022-08-05T18:12:39.270Z,23.94
2022-08-05T18:18:05.571Z,23.91
2022-08-05T18:23:40.720Z,23.90
2022-08-05T18:29:10.393Z,23.89
2022-08-05T18:34:40.715Z,23.87
2022-08-05T18:41:50.581Z,23.89
2022-08-05T18:45:45.411Z,23.90
2022-08-05T18:52:05.065Z,23.86
2022-08-05T18:57:09.708Z,23.77
2022-08-05T19:02:38.409Z,23.66
2022-08-05T19:08:02.766Z,23.56
2022-08-05T19:13:29.255Z,23.46
2022-08-05T19:18:51.229Z,23.46
2022-08-05T19:24:13.363Z,23.47
2022-08-05T19:29:36.163Z,23.45
2022-08-05T19:34:58.302Z,23.48
2022-08-05T19:40:20.023Z,23.51
2022-08-05T19:45:54.423Z,23.54
2022-08-05T19:52:05.489Z,23.55
2022-08-05T19:57:09.175Z,23.55
2022-08-05T20:02:33.665Z,23.53
2022-08-05T20:07:59.066Z,23.51
2022-08-05T20:13:29.992Z,23.51
2022-08-05T20:19:03.386Z,23.50
2022-08-05T20:24:25.125Z,23.51
2022-08-05T20:29:57.416Z,23.47
2022-08-05T20:35:20.335Z,23.44
2022-08-05T20:40:43.269Z,23.45
2022-08-05T20:46:06.915Z,23.40
2022-08-05T20:51:28.629Z,23.35
2022-08-05T20:56:50.337Z,23.39
2022-08-05T21:02:12.353Z,23.45
2022-08-05T21:07:50.493Z,23.47
2022-08-05T21:13:15.885Z,23.51
2022-08-05T21:18:47.913Z,23.53
2022-08-05T21:24:12.812Z,23.53
2022-08-05T21:29:40.608Z,23.54
2022-08-05T21:35:18.110Z,23.54
2022-08-05T21:40:45.082Z,23.55
2022-08-05T21:46:07.320Z,23.54
2022-08-05T21:52:22.979Z,23.53
2022-08-05T21:57:30.886Z,23.51
2022-08-05T22:02:52.693Z,23.51
2022-08-05T22:08:21.960Z,23.51
2022-08-05T22:14:31.221Z,23.50
2022-08-05T22:20:01.522Z,23.51
2022-08-05T22:26:10.871Z,23.49
2022-08-05T22:31:09.279Z,23.49
2022-08-05T22:36:32.941Z,23.49
2022-08-05T22:42:09.591Z,23.48
2022-08-05T22:47:34.664Z,23.48
2022-08-05T22:52:57.285Z,23.47
2022-08-05T22:58:28.628Z,23.48
2022-08-05T23:03:58.011Z,23.48
2022-08-05T23:09:27.467Z,23.47
2022-08-05T23:15:09.012Z,23.45
2022-08-05T23:20:32.891Z,23.45
2022-08-05T23:25:55.448Z,23.45
2022-08-05T23:31:18.031Z,23.44
2022-08-05T23:36:44.389Z,23.44
2022-08-05T23:42:08.631Z,23.43
2022-08-05T23:47:36.516Z,23.41
2022-08-05T23:53:22.712Z,23.44
2022-08-05T23:58:44.907Z,23.46
